sensor_id;sensor_type;location;lat;lon;timestamp;temperature;humidity
15700;DHT22;7950;42.744;23.174;2024-01-30T00:01:54;-0.70;99.90
15700;DHT22;7950;42.744;23.174;2024-01-30T00:04:23;-0.80;99.90
15700;DHT22;7950;42.744;23.174;2024-01-30T00:06:53;-0.90;99.90
15700;DHT22;7950;42.744;23.174;2024-01-30T00:09:21;-1.00;99.90
15700;DHT22;7950;42.744;23.174;2024-01-30T00:11:49;-1.00;99.90
15700;DHT22;7950;42.744;23.174;2024-01-30T00:14:18;-1.00;99.90
15700;DHT22;7950;42.744;23.174;2024-01-30T00:16:46;-1.10;99.90
15700;DHT22;7950;42.744;23.174;2024-01-30T00:19:14;-1.20;99.90
15700;DHT22;7950;42.744;23.174;2024-01-30T00:21:43;-1.20;99.90
15700;DHT22;7950;42.744;23.174;2024-01-30T00:24:13;-1.30;99.90
15700;DHT22;7950;42.744;23.174;2024-01-30T00:26:41;-1.30;99.90
15700;DHT22;7950;42.744;23.174;2024-01-30T00:29:09;-1.30;99.90
15700;DHT22;7950;42.744;23.174;2024-01-30T00:31:38;-1.20;99.90
15700;DHT22;7950;42.744;23.174;2024-01-30T00:34:08;-1.30;99.90
15700;DHT22;7950;42.744;23.174;2024-01-30T00:36:37;-1.30;99.90
15700;DHT22;7950;42.744;23.174;2024-01-30T00:39:05;-1.40;99.90
15700;DHT22;7950;42.744;23.174;2024-01-30T00:41:37;-1.50;99.90
15700;DHT22;7950;42.744;23.174;2024-01-30T00:44:06;-1.50;99.90
15700;DHT22;7950;42.744;23.174;2024-01-30T00:46:34;-1.60;99.90
15700;DHT22;7950;42.744;23.174;2024-01-30T00:49:02;-1.60;99.90
15700;DHT22;7950;42.744;23.174;2024-01-30T00:51:31;-1.70;99.90
15700;DHT22;7950;42.744;23.174;2024-01-30T00:53:59;-1.70;99.90
15700;DHT22;7950;42.744;23.174;2024-01-30T00:56:27;-1.70;99.90
15700;DHT22;7950;42.744;23.174;2024-01-30T00:58:57;-1.70;99.90
15700;DHT22;7950;42.744;23.174;2024-01-30T01:01:26;-1.80;99.90
15700;DHT22;7950;42.744;23.174;2024-01-30T01:03:54;-1.80;99.90
15700;DHT22;7950;42.744;23.174;2024-01-30T01:06:23;-1.90;99.90
15700;DHT22;7950;42.744;23.174;2024-01-30T01:08:51;-1.90;99.90
15700;DHT22;7950;42.744;23.174;2024-01-30T01:11:19;-1.90;99.90
15700;DHT22;7950;42.744;23.174;2024-01-30T01:13:48;-1.90;99.90
15700;DHT22;7950;42.744;23.174;2024-01-30T01:16:17;-2.00;99.90
15700;DHT22;7950;42.744;23.174;2024-01-30T01:18:46;-1.90;99.90
15700;DHT22;7950;42.744;23.174;2024-01-30T01:21:15;-2.00;99.90
15700;DHT22;7950;42.744;23.174;2024-01-30T01:23:43;-2.10;99.90
15700;DHT22;7950;42.744;23.174;2024-01-30T01:26:11;-2.10;99.90
15700;DHT22;7950;42.744;23.174;2024-01-30T01:28:40;-2.00;99.90
15700;DHT22;7950;42.744;23.174;2024-01-30T01:31:09;-2.00;99.90
15700;DHT22;7950;42.744;23.174;2024-01-30T01:33:39;-2.10;99.90
15700;DHT22;7950;42.744;23.174;2024-01-30T01:36:07;-2.20;99.90
15700;DHT22;7950;42.744;23.174;2024-01-30T01:38:35;-2.20;99.90
15700;DHT22;7950;42.744;23.174;2024-01-30T01:41:04;-2.20;99.90
15700;DHT22;7950;42.744;23.174;2024-01-30T01:43:32;-2.30;99.90
15700;DHT22;7950;42.744;23.174;2024-01-30T01:46:01;-2.30;99.90
15700;DHT22;7950;42.744;23.174;2024-01-30T01:48:30;-2.40;99.90
15700;DHT22;7950;42.744;23.174;2024-01-30T01:51:00;-2.40;99.90
15700;DHT22;7950;42.744;23.174;2024-01-30T01:53:28;-2.40;99.90
15700;DHT22;7950;42.744;23.174;2024-01-30T01:55:57;-2.50;99.90
15700;DHT22;7950;42.744;23.174;2024-01-30T01:58:27;-2.50;99.90
15700;DHT22;7950;42.744;23.174;2024-01-30T02:00:57;-2.50;99.90
15700;DHT22;7950;42.744;23.174;2024-01-30T02:03:26;-2.50;99.90
15700;DHT22;7950;42.744;23.174;2024-01-30T02:05:55;-2.60;99.90
15700;DHT22;7950;42.744;23.174;2024-01-30T02:08:26;-2.60;99.90
15700;DHT22;7950;42.744;23.174;2024-01-30T02:10:54;-2.60;99.90
15700;DHT22;7950;42.744;23.174;2024-01-30T02:13:23;-2.50;99.90
15700;DHT22;7950;42.744;23.174;2024-01-30T02:15:51;-2.50;99.90
15700;DHT22;7950;42.744;23.174;2024-01-30T02:18:20;-2.40;99.90
15700;DHT22;7950;42.744;23.174;2024-01-30T02:20:49;-2.50;99.90
15700;DHT22;7950;42.744;23.174;2024-01-30T02:23:20;-2.50;99.90
15700;DHT22;7950;42.744;23.174;2024-01-30T02:25:48;-2.60;99.90
15700;DHT22;7950;42.744;23.174;2024-01-30T02:28:16;-2.60;99.90
15700;DHT22;7950;42.744;23.174;2024-01-30T02:30:45;-2.60;99.90
15700;DHT22;7950;42.744;23.174;2024-01-30T02:33:14;-2.60;99.90
15700;DHT22;7950;42.744;23.174;2024-01-30T02:35:42;-2.60;99.90
15700;DHT22;7950;42.744;23.174;2024-01-30T02:38:11;-2.60;99.90
15700;DHT22;7950;42.744;23.174;2024-01-30T02:40:40;-2.60;99.90
15700;DHT22;7950;42.744;23.174;2024-01-30T02:43:09;-2.60;99.90
15700;DHT22;7950;42.744;23.174;2024-01-30T02:45:37;-2.60;99.90
15700;DHT22;7950;42.744;23.174;2024-01-30T02:48:06;-2.60;99.90
15700;DHT22;7950;42.744;23.174;2024-01-30T02:50:35;-2.60;99.90
15700;DHT22;7950;42.744;23.174;2024-01-30T02:53:03;-2.60;99.90
15700;DHT22;7950;42.744;23.174;2024-01-30T02:55:31;-2.60;99.90
15700;DHT22;7950;42.744;23.174;2024-01-30T02:58:01;-2.50;99.90
15700;DHT22;7950;42.744;23.174;2024-01-30T03:00:29;-2.50;99.90
15700;DHT22;7950;42.744;23.174;2024-01-30T03:02:58;-2.50;99.90
15700;DHT22;7950;42.744;23.174;2024-01-30T03:05:26;-2.50;99.90
15700;DHT22;7950;42.744;23.174;2024-01-30T03:07:54;-2.50;99.90
15700;DHT22;7950;42.744;23.174;2024-01-30T03:10:23;-2.50;99.90
15700;DHT22;7950;42.744;23.174;2024-01-30T03:12:51;-2.50;99.90
15700;DHT22;7950;42.744;23.174;2024-01-30T03:15:21;-2.50;99.90
15700;DHT22;7950;42.744;23.174;2024-01-30T03:17:49;-2.50;99.90
15700;DHT22;7950;42.744;23.174;2024-01-30T03:20:18;-2.50;99.90
15700;DHT22;7950;42.744;23.174;2024-01-30T03:22:46;-2.50;99.90
15700;DHT22;7950;42.744;23.174;2024-01-30T03:25:14;-2.50;99.90
15700;DHT22;7950;42.744;23.174;2024-01-30T03:27:43;-2.50;99.90
15700;DHT22;7950;42.744;23.174;2024-01-30T03:30:11;-2.50;99.90
15700;DHT22;7950;42.744;23.174;2024-01-30T03:32:41;-2.50;99.90
15700;DHT22;7950;42.744;23.174;2024-01-30T03:35:09;-2.50;99.90
15700;DHT22;7950;42.744;23.174;2024-01-30T03:37:38;-2.40;99.90
15700;DHT22;7950;42.744;23.174;2024-01-30T03:40:07;-2.50;99.90
15700;DHT22;7950;42.744;23.174;2024-01-30T03:42:36;-2.50;99.90
15700;DHT22;7950;42.744;23.174;2024-01-30T03:45:05;-2.60;99.90
15700;DHT22;7950;42.744;23.174;2024-01-30T03:47:34;-2.60;99.90
15700;DHT22;7950;42.744;23.174;2024-01-30T03:50:04;-2.70;99.90
15700;DHT22;7950;42.744;23.174;2024-01-30T03:52:33;-2.70;99.90
15700;DHT22;7950;42.744;23.174;2024-01-30T03:55:01;-2.70;99.90
15700;DHT22;7950;42.744;23.174;2024-01-30T03:57:29;-2.70;99.90
15700;DHT22;7950;42.744;23.174;2024-01-30T03:59:58;-2.70;99.90
15700;DHT22;7950;42.744;23.174;2024-01-30T04:02:29;-2.70;99.90
15700;DHT22;7950;42.744;23.174;2024-01-30T04:04:57;-2.70;99.90
15700;DHT22;7950;42.744;23.174;2024-01-30T04:07:27;-2.70;99.90
15700;DHT22;7950;42.744;23.174;2024-01-30T04:09:56;-2.70;99.90
15700;DHT22;7950;42.744;23.174;2024-01-30T04:12:24;-2.70;99.90
15700;DHT22;7950;42.744;23.174;2024-01-30T04:14:52;-2.70;99.90
15700;DHT22;7950;42.744;23.174;2024-01-30T04:17:21;-2.70;99.90
15700;DHT22;7950;42.744;23.174;2024-01-30T04:19:49;-2.80;99.90
15700;DHT22;7950;42.744;23.174;2024-01-30T04:22:17;-2.80;99.90
15700;DHT22;7950;42.744;23.174;2024-01-30T04:24:47;-2.90;99.90
15700;DHT22;7950;42.744;23.174;2024-01-30T04:27:15;-2.90;99.90
15700;DHT22;7950;42.744;23.174;2024-01-30T04:29:44;-2.90;99.90
15700;DHT22;7950;42.744;23.174;2024-01-30T04:32:12;-2.90;99.90
15700;DHT22;7950;42.744;23.174;2024-01-30T04:34:40;-2.80;99.90
15700;DHT22;7950;42.744;23.174;2024-01-30T04:37:10;-2.80;99.90
15700;DHT22;7950;42.744;23.174;2024-01-30T04:39:38;-2.90;99.90
15700;DHT22;7950;42.744;23.174;2024-01-30T04:42:09;-3.00;99.90
15700;DHT22;7950;42.744;23.174;2024-01-30T04:44:37;-3.00;99.90
15700;DHT22;7950;42.744;23.174;2024-01-30T04:47:06;-3.00;99.90
15700;DHT22;7950;42.744;23.174;2024-01-30T04:49:35;-3.00;99.90
15700;DHT22;7950;42.744;23.174;2024-01-30T04:52:04;-3.00;99.90
15700;DHT22;7950;42.744;23.174;2024-01-30T04:54:33;-3.10;99.90
15700;DHT22;7950;42.744;23.174;2024-01-30T04:57:02;-3.10;99.90
15700;DHT22;7950;42.744;23.174;2024-01-30T04:59:34;-3.00;99.90
15700;DHT22;7950;42.744;23.174;2024-01-30T05:02:02;-3.00;99.90
15700;DHT22;7950;42.744;23.174;2024-01-30T05:04:30;-3.20;99.90
15700;DHT22;7950;42.744;23.174;2024-01-30T05:06:59;-3.30;99.90
15700;DHT22;7950;42.744;23.174;2024-01-30T05:09:27;-3.30;99.90
15700;DHT22;7950;42.744;23.174;2024-01-30T05:11:56;-3.30;99.90
15700;DHT22;7950;42.744;23.174;2024-01-30T05:14:25;-3.40;99.90
15700;DHT22;7950;42.744;23.174;2024-01-30T05:16:54;-3.50;99.90
15700;DHT22;7950;42.744;23.174;2024-01-30T05:19:23;-3.50;99.90
15700;DHT22;7950;42.744;23.174;2024-01-30T05:21:51;-3.50;99.90
15700;DHT22;7950;42.744;23.174;2024-01-30T05:24:19;-3.60;99.90
15700;DHT22;7950;42.744;23.174;2024-01-30T05:26:50;-3.60;99.90
15700;DHT22;7950;42.744;23.174;2024-01-30T05:29:19;-3.50;99.90
15700;DHT22;7950;42.744;23.174;2024-01-30T05:31:47;-3.50;99.90
15700;DHT22;7950;42.744;23.174;2024-01-30T05:34:17;-3.50;99.90
15700;DHT22;7950;42.744;23.174;2024-01-30T05:36:45;-3.60;99.90
15700;DHT22;7950;42.744;23.174;2024-01-30T05:39:13;-3.60;99.90
15700;DHT22;7950;42.744;23.174;2024-01-30T05:41:42;-3.70;99.90
15700;DHT22;7950;42.744;23.174;2024-01-30T05:44:11;-3.70;99.90
15700;DHT22;7950;42.744;23.174;2024-01-30T05:46:39;-3.80;99.90
15700;DHT22;7950;42.744;23.174;2024-01-30T05:49:07;-3.80;99.90
15700;DHT22;7950;42.744;23.174;2024-01-30T05:51:37;-3.90;99.90
15700;DHT22;7950;42.744;23.174;2024-01-30T05:54:05;-3.90;99.90
15700;DHT22;7950;42.744;23.174;2024-01-30T05:56:34;-3.90;99.90
15700;DHT22;7950;42.744;23.174;2024-01-30T05:59:02;-3.90;99.90
15700;DHT22;7950;42.744;23.174;2024-01-30T06:01:31;-3.90;99.90
15700;DHT22;7950;42.744;23.174;2024-01-30T06:04:01;-3.80;99.90
15700;DHT22;7950;42.744;23.174;2024-01-30T06:06:29;-3.90;99.90
15700;DHT22;7950;42.744;23.174;2024-01-30T06:08:59;-3.80;99.90
15700;DHT22;7950;42.744;23.174;2024-01-30T06:11:28;-3.70;99.90
15700;DHT22;7950;42.744;23.174;2024-01-30T06:13:56;-3.40;99.90
15700;DHT22;7950;42.744;23.174;2024-01-30T06:16:24;-3.10;99.90
15700;DHT22;7950;42.744;23.174;2024-01-30T06:18:56;-2.70;99.90
15700;DHT22;7950;42.744;23.174;2024-01-30T06:21:26;-2.20;99.90
15700;DHT22;7950;42.744;23.174;2024-01-30T06:23:54;-1.70;99.90
15700;DHT22;7950;42.744;23.174;2024-01-30T06:26:24;-1.10;99.90
15700;DHT22;7950;42.744;23.174;2024-01-30T06:28:52;-0.60;99.90
15700;DHT22;7950;42.744;23.174;2024-01-30T06:31:20;-0.20;99.90
15700;DHT22;7950;42.744;23.174;2024-01-30T06:33:49;0.20;99.90
15700;DHT22;7950;42.744;23.174;2024-01-30T06:36:18;0.70;99.90
15700;DHT22;7950;42.744;23.174;2024-01-30T06:38:46;1.20;99.60
15700;DHT22;7950;42.744;23.174;2024-01-30T06:41:15;1.50;99.60
15700;DHT22;7950;42.744;23.174;2024-01-30T06:43:44;2.00;97.90
15700;DHT22;7950;42.744;23.174;2024-01-30T06:46:13;2.50;92.70
15700;DHT22;7950;42.744;23.174;2024-01-30T06:48:41;2.90;92.60
15700;DHT22;7950;42.744;23.174;2024-01-30T06:51:11;3.20;90.90
15700;DHT22;7950;42.744;23.174;2024-01-30T06:53:44;3.50;90.30
15700;DHT22;7950;42.744;23.174;2024-01-30T06:56:12;3.90;89.40
15700;DHT22;7950;42.744;23.174;2024-01-30T06:58:40;4.30;86.30
15700;DHT22;7950;42.744;23.174;2024-01-30T07:01:10;4.60;83.00
15700;DHT22;7950;42.744;23.174;2024-01-30T07:03:39;4.90;80.30
15700;DHT22;7950;42.744;23.174;2024-01-30T07:06:07;5.30;78.10
15700;DHT22;7950;42.744;23.174;2024-01-30T07:08:36;5.60;75.00
15700;DHT22;7950;42.744;23.174;2024-01-30T07:11:05;5.80;73.90
15700;DHT22;7950;42.744;23.174;2024-01-30T07:13:34;5.90;74.60
15700;DHT22;7950;42.744;23.174;2024-01-30T07:16:03;6.20;72.80
15700;DHT22;7950;42.744;23.174;2024-01-30T07:18:33;6.30;71.20
15700;DHT22;7950;42.744;23.174;2024-01-30T07:21:01;6.40;70.80
15700;DHT22;7950;42.744;23.174;2024-01-30T07:23:30;6.50;70.00
15700;DHT22;7950;42.744;23.174;2024-01-30T07:25:58;6.50;68.20
15700;DHT22;7950;42.744;23.174;2024-01-30T07:28:26;6.30;65.50
15700;DHT22;7950;42.744;23.174;2024-01-30T07:30:55;6.30;66.50
15700;DHT22;7950;42.744;23.174;2024-01-30T07:33:23;6.20;65.90
15700;DHT22;7950;42.744;23.174;2024-01-30T07:35:53;5.80;65.80
15700;DHT22;7950;42.744;23.174;2024-01-30T07:38:22;5.40;67.70
15700;DHT22;7950;42.744;23.174;2024-01-30T07:40:50;4.90;66.90
15700;DHT22;7950;42.744;23.174;2024-01-30T07:43:18;4.50;67.10
15700;DHT22;7950;42.744;23.174;2024-01-30T07:45:47;4.20;68.80
15700;DHT22;7950;42.744;23.174;2024-01-30T07:48:15;3.90;69.80
15700;DHT22;7950;42.744;23.174;2024-01-30T07:50:44;4.00;71.00
15700;DHT22;7950;42.744;23.174;2024-01-30T07:53:14;4.10;69.60
15700;DHT22;7950;42.744;23.174;2024-01-30T07:56:00;3.70;69.30
15700;DHT22;7950;42.744;23.174;2024-01-30T07:58:29;3.90;71.30
15700;DHT22;7950;42.744;23.174;2024-01-30T08:00:57;4.10;69.20
15700;DHT22;7950;42.744;23.174;2024-01-30T08:03:27;4.10;70.20
15700;DHT22;7950;42.744;23.174;2024-01-30T08:05:56;4.10;69.40
15700;DHT22;7950;42.744;23.174;2024-01-30T08:08:25;4.10;70.00
15700;DHT22;7950;42.744;23.174;2024-01-30T08:10:55;4.20;70.20
15700;DHT22;7950;42.744;23.174;2024-01-30T08:13:23;3.90;68.80
15700;DHT22;7950;42.744;23.174;2024-01-30T08:15:52;3.60;69.40
15700;DHT22;7950;42.744;23.174;2024-01-30T08:18:20;3.60;70.10
15700;DHT22;7950;42.744;23.174;2024-01-30T08:20:48;3.30;69.50
15700;DHT22;7950;42.744;23.174;2024-01-30T08:23:17;3.40;70.80
15700;DHT22;7950;42.744;23.174;2024-01-30T08:25:46;3.30;72.60
15700;DHT22;7950;42.744;23.174;2024-01-30T08:28:15;3.30;71.20
15700;DHT22;7950;42.744;23.174;2024-01-30T08:30:47;3.30;72.30
15700;DHT22;7950;42.744;23.174;2024-01-30T08:33:15;3.20;72.20
15700;DHT22;7950;42.744;23.174;2024-01-30T08:35:43;3.30;72.30
15700;DHT22;7950;42.744;23.174;2024-01-30T08:38:12;3.20;72.10
15700;DHT22;7950;42.744;23.174;2024-01-30T08:40:40;3.30;73.10
15700;DHT22;7950;42.744;23.174;2024-01-30T08:43:10;3.40;73.30
15700;DHT22;7950;42.744;23.174;2024-01-30T08:45:39;3.70;73.10
15700;DHT22;7950;42.744;23.174;2024-01-30T08:48:08;3.90;72.10
15700;DHT22;7950;42.744;23.174;2024-01-30T08:50:36;3.80;70.70
15700;DHT22;7950;42.744;23.174;2024-01-30T08:53:04;3.70;70.30
15700;DHT22;7950;42.744;23.174;2024-01-30T08:55:33;3.60;70.50
15700;DHT22;7950;42.744;23.174;2024-01-30T08:58:02;3.70;72.60
15700;DHT22;7950;42.744;23.174;2024-01-30T09:00:33;3.80;70.70
15700;DHT22;7950;42.744;23.174;2024-01-30T09:03:01;4.00;70.60
15700;DHT22;7950;42.744;23.174;2024-01-30T09:05:30;4.20;71.30
15700;DHT22;7950;42.744;23.174;2024-01-30T09:07:58;4.10;69.20
15700;DHT22;7950;42.744;23.174;2024-01-30T09:10:26;3.90;70.80
15700;DHT22;7950;42.744;23.174;2024-01-30T09:12:55;4.00;70.60
15700;DHT22;7950;42.744;23.174;2024-01-30T09:15:23;4.10;70.00
15700;DHT22;7950;42.744;23.174;2024-01-30T09:17:54;4.00;69.70
15700;DHT22;7950;42.744;23.174;2024-01-30T09:20:22;4.00;70.40
15700;DHT22;7950;42.744;23.174;2024-01-30T09:22:51;4.10;70.90
15700;DHT22;7950;42.744;23.174;2024-01-30T09:25:19;4.20;69.70
15700;DHT22;7950;42.744;23.174;2024-01-30T09:27:47;4.10;67.90
15700;DHT22;7950;42.744;23.174;2024-01-30T09:30:16;4.10;68.60
15700;DHT22;7950;42.744;23.174;2024-01-30T09:32:45;4.00;68.60
15700;DHT22;7950;42.744;23.174;2024-01-30T09:35:15;4.00;69.30
15700;DHT22;7950;42.744;23.174;2024-01-30T09:37:43;4.10;70.60
15700;DHT22;7950;42.744;23.174;2024-01-30T09:40:12;4.30;69.80
15700;DHT22;7950;42.744;23.174;2024-01-30T09:42:42;4.30;68.00
15700;DHT22;7950;42.744;23.174;2024-01-30T09:45:14;4.40;69.10
15700;DHT22;7950;42.744;23.174;2024-01-30T09:47:43;4.30;69.10
15700;DHT22;7950;42.744;23.174;2024-01-30T09:50:13;4.30;68.90
15700;DHT22;7950;42.744;23.174;2024-01-30T09:52:44;4.20;69.20
15700;DHT22;7950;42.744;23.174;2024-01-30T09:55:13;4.40;69.90
15700;DHT22;7950;42.744;23.174;2024-01-30T09:57:42;4.60;68.70
15700;DHT22;7950;42.744;23.174;2024-01-30T10:00:12;4.60;68.50
15700;DHT22;7950;42.744;23.174;2024-01-30T10:02:40;4.60;66.60
15700;DHT22;7950;42.744;23.174;2024-01-30T10:05:09;4.70;67.80
15700;DHT22;7950;42.744;23.174;2024-01-30T10:07:52;4.70;66.80
15700;DHT22;7950;42.744;23.174;2024-01-30T10:10:22;4.80;66.80
15700;DHT22;7950;42.744;23.174;2024-01-30T10:12:50;4.70;66.10
15700;DHT22;7950;42.744;23.174;2024-01-30T10:15:19;4.40;65.40
15700;DHT22;7950;42.744;23.174;2024-01-30T10:17:48;4.40;66.30
15700;DHT22;7950;42.744;23.174;2024-01-30T10:20:16;4.60;66.10
15700;DHT22;7950;42.744;23.174;2024-01-30T10:22:46;4.50;64.90
15700;DHT22;7950;42.744;23.174;2024-01-30T10:25:17;4.40;66.30
15700;DHT22;7950;42.744;23.174;2024-01-30T10:27:45;4.40;65.20
15700;DHT22;7950;42.744;23.174;2024-01-30T10:30:14;4.60;66.50
15700;DHT22;7950;42.744;23.174;2024-01-30T10:32:42;4.50;64.30
15700;DHT22;7950;42.744;23.174;2024-01-30T10:35:11;4.30;64.90
15700;DHT22;7950;42.744;23.174;2024-01-30T10:37:39;4.30;65.70
15700;DHT22;7950;42.744;23.174;2024-01-30T10:40:09;4.20;65.00
15700;DHT22;7950;42.744;23.174;2024-01-30T10:42:44;4.20;66.30
15700;DHT22;7950;42.744;23.174;2024-01-30T10:45:13;4.10;66.40
15700;DHT22;7950;42.744;23.174;2024-01-30T10:47:47;4.10;66.50
15700;DHT22;7950;42.744;23.174;2024-01-30T10:50:17;4.00;65.70
15700;DHT22;7950;42.744;23.174;2024-01-30T10:52:46;4.00;67.30
15700;DHT22;7950;42.744;23.174;2024-01-30T10:55:16;4.10;67.20
15700;DHT22;7950;42.744;23.174;2024-01-30T10:57:46;4.00;66.90
15700;DHT22;7950;42.744;23.174;2024-01-30T11:00:15;3.90;67.20
15700;DHT22;7950;42.744;23.174;2024-01-30T11:02:45;3.90;66.60
15700;DHT22;7950;42.744;23.174;2024-01-30T11:05:14;3.90;66.40
15700;DHT22;7950;42.744;23.174;2024-01-30T11:07:43;3.70;67.00
15700;DHT22;7950;42.744;23.174;2024-01-30T11:10:12;3.70;68.20
15700;DHT22;7950;42.744;23.174;2024-01-30T11:12:42;3.50;68.20
15700;DHT22;7950;42.744;23.174;2024-01-30T11:15:16;3.40;68.80
15700;DHT22;7950;42.744;23.174;2024-01-30T11:17:47;3.40;69.90
15700;DHT22;7950;42.744;23.174;2024-01-30T11:20:21;3.50;69.90
15700;DHT22;7950;42.744;23.174;2024-01-30T11:22:52;3.60;71.60
15700;DHT22;7950;42.744;23.174;2024-01-30T11:25:21;3.60;70.90
15700;DHT22;7950;42.744;23.174;2024-01-30T11:27:51;3.60;69.80
15700;DHT22;7950;42.744;23.174;2024-01-30T11:30:25;3.50;69.50
15700;DHT22;7950;42.744;23.174;2024-01-30T11:33:00;3.40;70.90
15700;DHT22;7950;42.744;23.174;2024-01-30T11:35:32;3.40;71.20
15700;DHT22;7950;42.744;23.174;2024-01-30T11:38:02;3.50;72.90
15700;DHT22;7950;42.744;23.174;2024-01-30T11:40:31;3.60;72.90
15700;DHT22;7950;42.744;23.174;2024-01-30T11:43:03;3.50;72.30
15700;DHT22;7950;42.744;23.174;2024-01-30T11:45:35;3.50;74.10
15700;DHT22;7950;42.744;23.174;2024-01-30T11:48:04;3.50;72.50
15700;DHT22;7950;42.744;23.174;2024-01-30T11:50:33;3.60;72.90
15700;DHT22;7950;42.744;23.174;2024-01-30T11:53:02;3.50;72.90
15700;DHT22;7950;42.744;23.174;2024-01-30T11:55:31;3.40;71.70
15700;DHT22;7950;42.744;23.174;2024-01-30T11:58:01;3.40;73.20
15700;DHT22;7950;42.744;23.174;2024-01-30T12:00:31;3.40;73.30
15700;DHT22;7950;42.744;23.174;2024-01-30T12:03:03;3.40;73.30
15700;DHT22;7950;42.744;23.174;2024-01-30T12:05:33;3.30;73.50
15700;DHT22;7950;42.744;23.174;2024-01-30T12:08:03;3.30;73.00
15700;DHT22;7950;42.744;23.174;2024-01-30T12:10:31;3.20;73.30
15700;DHT22;7950;42.744;23.174;2024-01-30T12:13:01;3.10;73.30
15700;DHT22;7950;42.744;23.174;2024-01-30T12:15:30;3.10;74.30
15700;DHT22;7950;42.744;23.174;2024-01-30T12:18:07;3.00;73.90
15700;DHT22;7950;42.744;23.174;2024-01-30T12:20:35;3.00;75.00
15700;DHT22;7950;42.744;23.174;2024-01-30T12:23:04;3.00;75.10
15700;DHT22;7950;42.744;23.174;2024-01-30T12:25:33;2.90;74.30
15700;DHT22;7950;42.744;23.174;2024-01-30T12:28:01;3.00;76.70
15700;DHT22;7950;42.744;23.174;2024-01-30T12:30:30;3.10;75.70
15700;DHT22;7950;42.744;23.174;2024-01-30T12:32:58;3.10;75.00
15700;DHT22;7950;42.744;23.174;2024-01-30T12:35:30;3.20;75.50
15700;DHT22;7950;42.744;23.174;2024-01-30T12:38:00;3.10;74.10
15700;DHT22;7950;42.744;23.174;2024-01-30T12:40:28;3.10;74.40
15700;DHT22;7950;42.744;23.174;2024-01-30T12:42:57;3.00;73.10
15700;DHT22;7950;42.744;23.174;2024-01-30T12:45:25;3.00;74.40
15700;DHT22;7950;42.744;23.174;2024-01-30T12:47:53;3.10;75.80
15700;DHT22;7950;42.744;23.174;2024-01-30T12:50:22;3.00;74.80
15700;DHT22;7950;42.744;23.174;2024-01-30T12:52:52;3.10;75.50
15700;DHT22;7950;42.744;23.174;2024-01-30T12:55:20;3.20;75.20
15700;DHT22;7950;42.744;23.174;2024-01-30T12:57:48;3.20;76.10
15700;DHT22;7950;42.744;23.174;2024-01-30T13:00:18;3.20;75.20
15700;DHT22;7950;42.744;23.174;2024-01-30T13:02:47;3.20;74.70
15700;DHT22;7950;42.744;23.174;2024-01-30T13:05:16;3.10;74.70
15700;DHT22;7950;42.744;23.174;2024-01-30T13:07:45;3.10;74.30
15700;DHT22;7950;42.744;23.174;2024-01-30T13:10:14;3.10;75.90
15700;DHT22;7950;42.744;23.174;2024-01-30T13:12:43;3.10;75.30
15700;DHT22;7950;42.744;23.174;2024-01-30T13:15:11;2.90;74.80
15700;DHT22;7950;42.744;23.174;2024-01-30T13:17:40;2.90;75.90
15700;DHT22;7950;42.744;23.174;2024-01-30T13:20:10;3.00;75.90
15700;DHT22;7950;42.744;23.174;2024-01-30T13:22:39;3.00;76.00
15700;DHT22;7950;42.744;23.174;2024-01-30T13:25:07;3.00;74.80
15700;DHT22;7950;42.744;23.174;2024-01-30T13:27:37;3.10;74.90
15700;DHT22;7950;42.744;23.174;2024-01-30T13:30:07;3.00;74.40
15700;DHT22;7950;42.744;23.174;2024-01-30T13:32:36;3.10;74.70
15700;DHT22;7950;42.744;23.174;2024-01-30T13:35:05;3.00;74.60
15700;DHT22;7950;42.744;23.174;2024-01-30T13:37:34;3.10;75.30
15700;DHT22;7950;42.744;23.174;2024-01-30T13:40:03;3.10;76.50
15700;DHT22;7950;42.744;23.174;2024-01-30T13:42:39;3.20;74.90
15700;DHT22;7950;42.744;23.174;2024-01-30T13:45:07;3.20;76.40
15700;DHT22;7950;42.744;23.174;2024-01-30T13:47:37;3.10;75.70
15700;DHT22;7950;42.744;23.174;2024-01-30T13:50:06;3.00;75.80
15700;DHT22;7950;42.744;23.174;2024-01-30T13:52:35;3.00;75.70
15700;DHT22;7950;42.744;23.174;2024-01-30T13:55:10;3.00;76.40
15700;DHT22;7950;42.744;23.174;2024-01-30T13:57:41;2.90;76.00
15700;DHT22;7950;42.744;23.174;2024-01-30T14:00:10;2.80;78.60
15700;DHT22;7950;42.744;23.174;2024-01-30T14:02:39;2.80;79.60
15700;DHT22;7950;42.744;23.174;2024-01-30T14:05:08;2.80;80.40
15700;DHT22;7950;42.744;23.174;2024-01-30T14:07:37;2.80;81.20
15700;DHT22;7950;42.744;23.174;2024-01-30T14:10:09;2.70;80.60
15700;DHT22;7950;42.744;23.174;2024-01-30T14:12:43;2.60;80.10
15700;DHT22;7950;42.744;23.174;2024-01-30T14:15:12;2.60;81.30
15700;DHT22;7950;42.744;23.174;2024-01-30T14:17:54;2.60;81.20
15700;DHT22;7950;42.744;23.174;2024-01-30T14:20:23;2.60;83.30
15700;DHT22;7950;42.744;23.174;2024-01-30T14:22:51;2.60;84.40
15700;DHT22;7950;42.744;23.174;2024-01-30T14:25:24;2.60;83.70
15700;DHT22;7950;42.744;23.174;2024-01-30T14:27:54;2.60;84.40
15700;DHT22;7950;42.744;23.174;2024-01-30T14:30:22;2.60;85.00
15700;DHT22;7950;42.744;23.174;2024-01-30T14:32:51;2.60;87.10
15700;DHT22;7950;42.744;23.174;2024-01-30T14:35:20;2.50;88.90
15700;DHT22;7950;42.744;23.174;2024-01-30T14:37:48;2.40;89.30
15700;DHT22;7950;42.744;23.174;2024-01-30T14:40:17;2.30;89.70
15700;DHT22;7950;42.744;23.174;2024-01-30T14:42:46;2.30;90.10
15700;DHT22;7950;42.744;23.174;2024-01-30T14:45:16;2.30;90.30
15700;DHT22;7950;42.744;23.174;2024-01-30T14:47:45;2.20;90.80
15700;DHT22;7950;42.744;23.174;2024-01-30T14:50:14;2.20;91.60
15700;DHT22;7950;42.744;23.174;2024-01-30T14:52:45;2.20;92.50
15700;DHT22;7950;42.744;23.174;2024-01-30T14:55:14;2.10;93.00
15700;DHT22;7950;42.744;23.174;2024-01-30T14:57:42;2.10;92.80
15700;DHT22;7950;42.744;23.174;2024-01-30T15:00:13;2.00;94.00
15700;DHT22;7950;42.744;23.174;2024-01-30T15:02:44;1.90;95.10
15700;DHT22;7950;42.744;23.174;2024-01-30T15:05:14;1.80;95.90
15700;DHT22;7950;42.744;23.174;2024-01-30T15:07:43;1.80;96.30
15700;DHT22;7950;42.744;23.174;2024-01-30T15:10:11;1.70;96.30
15700;DHT22;7950;42.744;23.174;2024-01-30T15:12:40;1.50;97.40
15700;DHT22;7950;42.744;23.174;2024-01-30T15:15:08;1.40;98.30
15700;DHT22;7950;42.744;23.174;2024-01-30T15:17:39;1.40;99.30
15700;DHT22;7950;42.744;23.174;2024-01-30T15:20:09;1.30;99.40
15700;DHT22;7950;42.744;23.174;2024-01-30T15:22:38;1.20;99.70
15700;DHT22;7950;42.744;23.174;2024-01-30T15:25:07;1.10;99.90
15700;DHT22;7950;42.744;23.174;2024-01-30T15:27:36;1.00;99.90
15700;DHT22;7950;42.744;23.174;2024-01-30T15:30:05;1.00;99.90
15700;DHT22;7950;42.744;23.174;2024-01-30T15:32:34;1.00;99.90
15700;DHT22;7950;42.744;23.174;2024-01-30T15:35:03;0.90;99.90
15700;DHT22;7950;42.744;23.174;2024-01-30T15:37:34;0.80;99.90
15700;DHT22;7950;42.744;23.174;2024-01-30T15:40:03;0.70;99.90
15700;DHT22;7950;42.744;23.174;2024-01-30T15:42:33;0.70;99.90
15700;DHT22;7950;42.744;23.174;2024-01-30T15:45:02;0.60;99.90
15700;DHT22;7950;42.744;23.174;2024-01-30T15:47:31;0.50;99.90
15700;DHT22;7950;42.744;23.174;2024-01-30T15:50:00;0.50;99.90
15700;DHT22;7950;42.744;23.174;2024-01-30T15:52:28;0.40;99.90